Tiempo atmosférico en la estación meteorológica de Bustillo del Páramo, León (850 m.)



Fecha
DESCASC
Temp. máxima en grados centígrados (hora)
DESCASC
Temp. mínima en grados centígrados (hora)
DESCASC
Temp. media en grados centígrados
DESCASC
Racha de viento máxima en m/sg (hora)
DESCASC
Velocidad máxima media en intervalos de 10 minutos(hora)
DESCASC
Precipitaciones diarias en mm
DESCASC
Precipitaciones de 00:00 a 06:00 en mm
DESCASC
Precipitaciones de 06:00 a 12:00 en mm
DESCASC
Precipitaciones de 12:00 a 18:00 en mm
DESCASC
Precipitaciones de 18:00 a 24:00 en mm
DESCASC
25-04-2019 11.1 (15:20) 1.7 (05:20) 6.4 17.78 (16:10) 13.61 (15:40) 1 0.2 0 0.2 0.6
24-04-2019 10.9 (16:50) 1.4 (09:10) 6.1 17.5 (18:40) 13.06 (17:00) 4.4 0.2 3.4 0 0.8
23-04-2019 12.3 (15:00) 3.9 (23:59) 8.1 15.83 (15:10) 12.5 (15:10) 2.8 2 0 0.8 0
22-04-2019 17.9 (17:00) 5.4 (00:00) 11.6 11.67 (18:50) 8.89 (18:50) 0 0 0 0 0
21-04-2019 18.4 (18:10) 4.7 (00:00) 11.5 10 (13:10) 7.22 (18:50) 0.2 0 0 0.2 0
20-04-2019 22.3 (17:20) 4.9 (00:00) 13.6 12.5 (15:10) 7.5 (19:50) 0 0 0 0 0
19-04-2019 14.4 (18:00) 7.8 (00:00) 11.1 13.89 (16:50) 8.89 (15:30) 5.2 5 0.2 0 0
18-04-2019 13 (15:40) 6.7 (00:00) 9.8 9.17 (20:40) 5.83 (18:30) 4.8 1.6 0 0 3.2
17-04-2019 18 (17:00) 6.7 (00:00) 12.3 19.72 (18:40) 11.67 (18:50) 0.6 0 0 0 0.6
16-04-2019 17.4 (18:10) 0.8 (00:00) 9.1 8.61 (16:40) 5.28 (16:40) 0 0 0 0 0
15-04-2019 17.8 (11:50) 6.4 (00:00) 12.1 17.5 (12:10) 11.94 (15:40) 7 0 0 7 0
14-04-2019 21 (17:20) 8.1 (00:00) 14.6 9.17 (19:50) 6.94 (19:50) 0 0 0 0 0
13-04-2019 19.9 (16:50) 1.8 (00:00) 10.8 7.5 (16:30) 5.83 (20:10) 0 0 0 0 0
12-04-2019 16.3 (19:00) -1.3 (-00:0) 7.5 5.28 (14:40) 3.33 (20:30) 0 0 0 0 0
11-04-2019 12.6 (19:20) -0.7 (-00:0) 6 7.78 (20:40) 4.44 (20:40) 0 0 0 0 0
10-04-2019 13.1 (17:50) 2.6 (00:00) 7.9 11.11 (17:40) 7.78 (18:00) 1 0 0 1 0
09-04-2019 11.7 (17:30) 3.8 (00:00) 7.7 12.78 (20:30) 9.17 (19:30) 1.6 0 1.4 0.2 0
08-04-2019 12.8 (17:50) 2.8 (00:00) 7.8 12.22 (18:00) 8.89 (18:00) 1.6 1.6 0 0 0
07-04-2019 11.4 (15:40) -0.6 (-00:0) 5.4 14.17 (16:40) 9.44 (16:50) 4.8 0 0 0.2 4.6
06-04-2019 9.1 (15:40) 0.5 (00:00) 4.8 16.67 (18:50) 11.67 (18:50) 0.2 0 0 0.2 0
05-04-2019 9.4 (16:40) 0.8 (00:00) 5.1 10.56 (19:00) 8.33 (19:00) 3.6 1.2 0.4 0.2 1.8
04-04-2019 9.5 (16:00) -3.3 (-00:0) 3.1 13.61 (12:40) 10 (18:50) 0.6 0 0 0 0.6
03-04-2019 9.7 (16:40) 0.6 (00:00) 5.1 16.11 (18:00) 10.28 (15:40) 0 0 0 0 0
02-04-2019 17.8 (17:00) 0.8 (00:00) 9.3 12.78 (19:40) 8.89 (19:40) 0 0 0 0 0
01-04-2019 17 (16:40) 0.1 (00:00) 8.6 9.72 (17:50) 5.83 (17:50) 0 0 0 0 0
31-03-2019 17.3 (15:00) 1.5 (00:00) 9.4 9.17 (20:10) 6.11 (20:20) 0 0 0 0 0
30-03-2019 17.4 (15:10) 5.5 (00:00) 11.4 6.94 (15:10) 4.72 (08:50) 0 0 0 0 0
29-03-2019 18.7 (17:10) -0.1 (00:00) 9.3 7.22 (19:00) 5.28 (19:00) 0 0 0 0 0
28-03-2019 18.6 (16:50) -2.4 (-00:0) 8.1 10.83 (15:40) 6.39 (16:30) 0 0 0 0 0
27-03-2019 19.3 (16:40) -3 (-00:0) 8.1 10.83 (15:50) 6.94 (16:50) 0 0 0 0 0

Gráficas

Temp. máximas Temp. mínimas Temp. medias Precipitaciones Rachas de viento máximas Velocidades máximas media en intervalos de 10 minutos

Datos horarios

Fecha y hora oficial Temperatura (ºC) Velocidad del viento (km/h) Dirección del viento Racha (km/h) Dirección de racha Precipitación (mm) Presión (hPa) Tendencia (hPa) Humedad (%)
2019-04-25 23:00:00 5.9 10 Oeste 23 Oeste 0.4 -- -- 81
2019-04-25 22:00:00 6.6 17 Sudoeste 29 Sudoeste 0 -- -- 68
2019-04-25 21:00:00 7.1 19 Oeste 38 Sudoeste 0 -- -- 64
2019-04-25 20:00:00 8.6 26 Sudoeste 38 Oeste 0 -- -- 59
2019-04-25 19:00:00 8.1 26 Oeste 47 Oeste 0 -- -- 68
2019-04-25 18:00:00 7.1 31 Sudoeste 58 Sudoeste 0.2 -- -- 75
2019-04-25 17:00:00 9.9 40 Sur 64 Sudoeste 0 -- -- 56
2019-04-25 16:00:00 10.4 44 Sur 62 Sudoeste 0 -- -- 54
2019-04-25 15:00:00 10.1 48 Sudoeste 60 Sudoeste 0 -- -- 54
2019-04-25 14:00:00 10.1 45 Sudoeste 58 Sudoeste 0 -- -- 57
2019-04-25 13:00:00 9.3 41 Sur 54 Sur 0 -- -- 63
2019-04-25 12:00:00 8.3 39 Sur 51 Sur 0 -- -- 73
2019-04-25 11:00:00 7 23 Sur 36 Sur 0 -- -- 73
2019-04-25 10:00:00 5.3 24 Sudoeste 30 Sudoeste 0 -- -- 87
2019-04-25 09:00:00 3.4 24 Sur 39 Sudoeste 0 -- -- 90
2019-04-25 08:00:00 2.5 22 Sur 32 Sur 0 -- -- 92
2019-04-25 07:00:00 2.3 20 Sur 31 Sur 0 -- -- 92
2019-04-25 06:00:00 2 24 Sur 37 Sur 0 -- -- 92
2019-04-25 05:00:00 2 21 Sur 30 Sur 0 -- -- 92
2019-04-25 04:00:00 3.2 15 Sur 30 Sur 0 -- -- 91
2019-04-25 03:00:00 3.5 8 Sur 12 Sudoeste 0.2 -- -- 93
2019-04-25 02:00:00 3.5 8 Oeste 24 Sudoeste 0 -- -- 92
2019-04-25 01:00:00 3.8 18 Sudoeste 33 Sudoeste 0 -- -- 90
2019-04-25 00:00:00 4.6 14 Sudoeste 20 Sudoeste 0 -- -- 90
2019-04-24 23:00:00 5.1 8 Sudoeste 24 Sudoeste 0.4 -- -- 89
2019-04-24 22:00:00 5.5 20 Sudoeste 42 Sudoeste 0.2 -- -- 82
2019-04-24 21:00:00 6.2 31 Sudoeste 58 Sudoeste 0.2 -- -- 84
2019-04-24 20:00:00 8.1 44 Sudoeste 59 Sudoeste 0 -- -- 75
2019-04-24 19:00:00 10 40 Sudoeste 63 Sudoeste 0 -- -- 66
2019-04-24 18:00:00 10.2 40 Sudoeste 53 Sudoeste 0 -- -- 65
2019-04-24 17:00:00 10.9 47 Sudoeste 61 Sudoeste 0 -- -- 61
2019-04-24 16:00:00 9.7 37 Sudoeste 58 Sudoeste 0 -- -- 75
2019-04-24 15:00:00 8.7 22 Sur 58 Sudoeste 0 -- -- 80
2019-04-24 14:00:00 8 33 Sur 49 Sur 0 -- -- 91
2019-04-24 13:00:00 6.6 23 Sur 33 Sur 0 -- -- 94
2019-04-24 12:00:00 4.2 20 Sur 29 Sur 0 -- -- 95
2019-04-24 11:00:00 2.9 19 Sur 31 Sudeste 0.2 -- -- 95
2019-04-24 10:00:00 2.3 21 Sur 28 Sur 0.4 -- -- 95
2019-04-24 09:00:00 1.6 17 Sudeste 35 Sur 1.2 -- -- 94
2019-04-24 08:00:00 2.5 21 Sur 33 Sudeste 1 -- -- 93
2019-04-24 07:00:00 2.5 19 Sur 34 Sur 0.6 -- -- 93
2019-04-24 06:00:00 3.1 22 Sur 32 Sur 0.2 -- -- 92
2019-04-24 05:00:00 2.9 21 Sur 30 Sur 0 -- -- 92
2019-04-24 04:00:00 2.2 20 Sur 31 Sur 0 -- -- 90
2019-04-24 03:00:00 2.5 14 Sur 25 Sur 0 -- -- 90
2019-04-24 02:00:00 2.7 8 Sur 17 Sudoeste 0 -- -- 88
2019-04-24 01:00:00 3.1 11 Sur 15 Sur 0 -- -- 86
2019-04-24 00:00:00 3.9 4 Sudoeste 11 Oeste 0 -- -- 81
2019-04-23 23:00:00 4.6 8 Oeste 18 Oeste 0 -- -- 77
2019-04-23 22:00:00 5.1 13 Oeste 27 Oeste 0 -- -- 74
2019-04-23 21:00:00 6.6 17 Noroeste 39 Oeste 0 -- -- 68
2019-04-23 20:00:00 7.1 21 Oeste 35 Noroeste 0 -- -- 65
2019-04-23 19:00:00 6.9 23 Oeste 36 Oeste 0 -- -- 67
2019-04-23 18:00:00 7.4 18 Oeste 43 Oeste 0.6 -- -- 74
2019-04-23 17:00:00 6.1 34 Oeste 51 Oeste 0.2 -- -- 81
2019-04-23 16:00:00 9.5 36 Oeste 57 Sur 0 -- -- 57
2019-04-23 15:00:00 12.3 30 Sur 51 Sur 0 -- -- 45
2019-04-23 14:00:00 11.4 28 Sur 41 Sur 0 -- -- 54
2019-04-23 13:00:00 9.2 30 Sur 41 Sur 0 -- -- 63
2019-04-23 12:00:00 7.6 27 Sur 37 Sur 0 -- -- 67
2019-04-23 11:00:00 7 23 Sur 31 Sur 0 -- -- 79
2019-04-23 10:00:00 6.5 23 Sudoeste 37 Sur 0 -- -- 84
2019-04-23 09:00:00 5.1 21 Sur 34 Sur 0 -- -- 91
2019-04-23 08:00:00 5 24 Sur 33 Sur 0 -- -- 91
2019-04-23 07:00:00 5.3 23 Sur 32 Sur 0 -- -- 88
2019-04-23 06:00:00 6.4 14 Sur 22 Sur 0 -- -- 86
2019-04-23 05:00:00 7.5 22 Sudoeste 31 Sudoeste 0.2 -- -- 90
2019-04-23 04:00:00 8 5 Sudeste 12 Sudeste 0 -- -- 88
2019-04-23 03:00:00 8.1 10 Sudeste 15 Sudeste 0.2 -- -- 85
2019-04-23 02:00:00 8.1 10 Sudeste 21 Sur 0.2 -- -- 88
2019-04-23 01:00:00 8.4 14 Sur 36 Sudoeste 1.4 -- -- 85
2019-04-23 00:00:00 10.9 28 Sudoeste 39 Sudoeste 0 -- -- 64
2019-04-22 23:00:00 11.8 24 Sudoeste 39 Sudoeste 0 -- -- 62
2019-04-22 22:00:00 13.3 18 Sur 32 Sur 0 -- -- 57
2019-04-22 21:00:00 14.2 20 Sur 35 Sur 0 -- -- 52
2019-04-22 20:00:00 15.3 26 Sur 41 Sur 0 -- -- 45
2019-04-22 19:00:00 16.5 28 Sur 42 Sudoeste 0 -- -- 43
2019-04-22 18:00:00 17.1 21 Sur 33 Sur 0 -- -- 43
2019-04-22 17:00:00 17.9 23 Sudoeste 39 Sudoeste 0 -- -- 43
2019-04-22 16:00:00 15.8 10 Sur 29 Sur 0 -- -- 46
2019-04-22 15:00:00 15.7 11 Sur 26 Sur 0 -- -- 51
2019-04-22 14:00:00 14.7 11 Sur 25 Sur 0 -- -- 56
2019-04-22 13:00:00 13.4 12 Sur 22 Sur 0 -- -- 64
2019-04-22 12:00:00 11.4 6 Sur 13 Sur 0 -- -- 68
2019-04-22 11:00:00 10.5 5 Sur 9 Sudoeste 0 -- -- 75
2019-04-22 10:00:00 9.1 4 Sudeste 7 Este 0 -- -- 77
2019-04-22 09:00:00 6.9 6 Este 8 Nordeste 0 -- -- 86
2019-04-22 08:00:00 5.4 3 Norte 5 Nordeste 0 -- -- 87
2019-04-22 07:00:00 5.5 4 Noroeste 6 Noroeste 0 -- -- 87
2019-04-22 06:00:00 6.5 3 Norte 5 Noroeste 0 -- -- 81
2019-04-22 05:00:00 7.5 3 Nordeste 5 Este 0 -- -- 71
2019-04-22 04:00:00 8.7 4 Este 5 Este 0 -- -- 69
2019-04-22 03:00:00 9.2 4 Sudeste 6 Sudeste 0 -- -- 70
2019-04-22 02:00:00 9.7 3 Sudeste 13 Este 0 -- -- 67
2019-04-22 01:00:00 9.9 12 Este 16 Este 0 -- -- 64
2019-04-22 00:00:00 10.9 9 Este 24 Este 0 -- -- 62
2019-04-21 23:00:00 11.7 9 Este 15 Este 0 -- -- 57
2019-04-21 22:00:00 12.5 6 Sudeste 20 Sudeste 0 -- -- 61
2019-04-21 21:00:00 13.5 15 Sudeste 28 Este 0 -- -- 56
2019-04-21 20:00:00 15.4 8 Sur 32 Norte 0 -- -- 48
2019-04-21 19:00:00 17.6 23 Norte 34 Norte 0 -- -- 37
2019-04-21 18:00:00 17.7 15 Norte 28 Nordeste 0 -- -- 36
2019-04-21 17:00:00 17.7 15 Nordeste 30 Nordeste 0 -- -- 36
2019-04-21 16:00:00 16.3 8 Norte 27 Norte 0.2 -- -- 46
2019-04-21 15:00:00 17.4 20 Este 35 Este 0 -- -- 42
2019-04-21 14:00:00 17.2 19 Este 36 Nordeste 0 -- -- 44
2019-04-21 13:00:00 17.3 21 Nordeste 34 Nordeste 0 -- -- 43
2019-04-21 12:00:00 16.4 15 Nordeste 34 Nordeste 0 -- -- 44
2019-04-21 11:00:00 15.5 17 Nordeste 31 Norte 0 -- -- 46
2019-04-21 10:00:00 12 14 Noroeste 20 Noroeste 0 -- -- 63
2019-04-21 09:00:00 8.4 11 Noroeste 16 Noroeste 0 -- -- 73
2019-04-21 08:00:00 5.1 3 Noroeste 8 Noroeste 0 -- -- 81
2019-04-21 07:00:00 5.6 4 Norte 10 Noroeste 0 -- -- 78
2019-04-21 06:00:00 5.5 7 Noroeste 10 Noroeste 0 -- -- 79
2019-04-21 05:00:00 6.8 5 Nordeste 12 Nordeste 0 -- -- 74
2019-04-21 04:00:00 7.9 9 Nordeste 17 Nordeste 0 -- -- 70
2019-04-21 03:00:00 8.8 14 Norte 17 Norte 0 -- -- 66
2019-04-21 02:00:00 8 9 Norte 17 Norte 0 -- -- 69
2019-04-21 01:00:00 9.4 14 Norte 22 Norte 0 -- -- 64
2019-04-21 00:00:00 9.9 13 Norte 19 Norte 0 -- -- 64
2019-04-20 23:00:00 11.9 14 Norte 26 Norte 0 -- -- 56
2019-04-20 22:00:00 13.8 21 Norte 31 Norte 0 -- -- 51
2019-04-20 21:00:00 16.2 24 Norte 38 Norte 0 -- -- 44
2019-04-20 20:00:00 18.9 26 Norte 34 Norte 0 -- -- 37
2019-04-20 19:00:00 20.8 19 Norte 35 Nordeste 0 -- -- 32
2019-04-20 18:00:00 21.9 19 Nordeste 38 Norte 0 -- -- 27
2019-04-20 17:00:00 21.9 15 Nordeste 29 Nordeste 0 -- -- 30
2019-04-20 16:00:00 21.8 18 Nordeste 45 Nordeste 0 -- -- 27
2019-04-20 15:00:00 21.6 21 Nordeste 35 Nordeste 0 -- -- 32
2019-04-20 14:00:00 20.8 9 Este 23 Este 0 -- -- 35
2019-04-20 13:00:00 18.9 5 Sur 10 Sur 0 -- -- 48
2019-04-20 12:00:00 16.6 5 Oeste 12 Oeste 0 -- -- 54
2019-04-20 11:00:00 14.3 6 Oeste 13 Oeste 0 -- -- 63
2019-04-20 10:00:00 10.9 10 Noroeste 18 Noroeste 0 -- -- 75
2019-04-20 09:00:00 7.7 14 Noroeste 23 Norte 0 -- -- 83
2019-04-20 08:00:00 5.3 16 Noroeste 22 Noroeste 0 -- -- 89
2019-04-20 07:00:00 5.1 10 Noroeste 17 Norte 0 -- -- 89
2019-04-20 06:00:00 5.6 10 Norte 14 Norte 0 -- -- 88
2019-04-20 05:00:00 6.6 7 Norte 14 Norte 0 -- -- 85
2019-04-20 04:00:00 7.1 11 Norte 13 Norte 0 -- -- 84
2019-04-20 03:00:00 9.3 5 Norte 14 Norte 0 -- -- 74
2019-04-20 02:00:00 10.8 7 Norte 13 Norte 0 -- -- 68
2019-04-20 01:00:00 9.6 3 Noroeste 13 Nordeste 0 -- -- 73
2019-04-20 00:00:00 11.6 12 Nordeste 18 Nordeste 0 -- -- 65
2019-04-19 23:00:00 12.3 15 Nordeste 23 Nordeste 0 -- -- 62
2019-04-19 22:00:00 12.6 10 Nordeste 19 Nordeste 0 -- -- 60
2019-04-19 21:00:00 13.4 14 Nordeste 34 Nordeste 0 -- -- 60
2019-04-19 20:00:00 14 24 Este 38 Nordeste 0 -- -- 60
2019-04-19 19:00:00 14.1 22 Este 31 Este 0 -- -- 65
2019-04-19 18:00:00 14.4 17 Este 38 Este 0 -- -- 68
2019-04-19 17:00:00 12.9 22 Este 50 Este 0 -- -- 71
2019-04-19 16:00:00 13.6 24 Este 45 Este 0 -- -- 70
2019-04-19 15:00:00 13.7 27 Este 43 Este 0 -- -- 67
2019-04-19 14:00:00 12.9 31 Este 44 Este 0 -- -- 69
2019-04-19 13:00:00 12.4 23 Este 42 Este 0 -- -- 75
2019-04-19 12:00:00 11.7 22 Este 42 Este 0.2 -- -- 83
2019-04-19 11:00:00 9.5 18 Este 40 Nordeste 0 -- -- 92
2019-04-19 10:00:00 8.8 30 Nordeste 41 Nordeste 0 -- -- 90
2019-04-19 09:00:00 8.4 18 Nordeste 28 Nordeste 0 -- -- 90
2019-04-19 08:00:00 8.2 18 Nordeste 28 Nordeste 0 -- -- 91
2019-04-19 07:00:00 8.3 21 Nordeste 38 Nordeste 0 -- -- 91
2019-04-19 06:00:00 8.1 24 Nordeste 33 Nordeste 0.2 -- -- 91
2019-04-19 05:00:00 8 19 Nordeste 30 Nordeste 1.2 -- -- 91
2019-04-19 04:00:00 8 18 Norte 28 Norte 0.6 -- -- 91
2019-04-19 03:00:00 7.9 13 Norte 30 Nordeste 1.4 -- -- 91
2019-04-19 02:00:00 8 16 Nordeste 29 Nordeste 1.2 -- -- 91
2019-04-19 01:00:00 8.1 11 Norte 13 Norte 0.4 -- -- 92
2019-04-19 00:00:00 8 10 Nordeste 24 Norte 0.2 -- -- 91
2019-04-18 23:00:00 8 14 Norte 21 Norte 0 -- -- 90
2019-04-18 22:00:00 8.1 11 Nordeste 24 Nordeste 0.2 -- -- 91
2019-04-18 21:00:00 8.6 14 Nordeste 33 Nordeste 1 -- -- 91
2019-04-18 20:00:00 9.2 4 Nordeste 19 Este 0.6 -- -- 91
2019-04-18 19:00:00 9.2 15 Este 26 Este 1.2 -- -- 90
2019-04-18 18:00:00 10.4 16 Nordeste 26 Este 0 -- -- 82
2019-04-18 17:00:00 11.7 16 Nordeste 29 Nordeste 0 -- -- 70
2019-04-18 16:00:00 12.9 9 Nordeste 18 Nordeste 0 -- -- 67
2019-04-18 15:00:00 12.1 8 Nordeste 20 Nordeste 0 -- -- 69
2019-04-18 14:00:00 11 9 Nordeste 16 Nordeste 0 -- -- 76
2019-04-18 13:00:00 10.2 8 Norte 13 Norte 0 -- -- 80
2019-04-18 12:00:00 10.2 3 Sudeste 8 Sudeste 0 -- -- 81
2019-04-18 11:00:00 8.8 5 Sur 13 Sur 0 -- -- 89
2019-04-18 10:00:00 8 6 Sudeste 12 Sudeste 0 -- -- 93
2019-04-18 09:00:00 7.5 6 Sudeste 13 Sudeste 0 -- -- 95
2019-04-18 08:00:00 7.2 6 Sudeste 10 Sudeste 0 -- -- 95
2019-04-18 07:00:00 6.7 9 Sudeste 17 Sur 0 -- -- 93
2019-04-18 06:00:00 7.2 10 Sudeste 19 Sur 0.2 -- -- 92
2019-04-18 05:00:00 7.8 14 Sur 26 Sur 0 -- -- 93
2019-04-18 04:00:00 8.4 17 Sur 26 Sur 0.6 -- -- 94
2019-04-18 03:00:00 8.8 14 Sur 24 Sur 0.2 -- -- 93
2019-04-18 02:00:00 9 17 Sur 25 Sur 0 -- -- 91
2019-04-18 01:00:00 9 15 Sudeste 31 Sudeste 0.6 -- -- 91
2019-04-18 00:00:00 9.4 9 Sudeste 22 Sur 0.4 -- -- 89
2019-04-17 23:00:00 9.9 14 Sur 35 Sudoeste 0.2 -- -- 86
2019-04-17 22:00:00 11.2 29 Sudoeste 43 Sudoeste 0 -- -- 75
2019-04-17 21:00:00 13.6 22 Sudoeste 30 Sudeste 0 -- -- 63
2019-04-17 20:00:00 14.4 21 Sudeste 49 Sudeste 0 -- -- 58
2019-04-17 19:00:00 15 32 Sudeste 71 Sudeste 0 -- -- 58
2019-04-17 18:00:00 17.9 27 Sudeste 41 Sudeste 0 -- -- 44
2019-04-17 17:00:00 18 21 Sudeste 39 Sudeste 0 -- -- 43
2019-04-17 16:00:00 17.3 21 Sudeste 38 Sudeste 0 -- -- 49
2019-04-17 15:00:00 16.6 19 Sudeste 32 Sudeste 0 -- -- 50
2019-04-17 14:00:00 16.7 17 Sudeste 36 Sur 0 -- -- 49
2019-04-17 13:00:00 16.4 19 Sur 32 Sudeste 0 -- -- 53
2019-04-17 12:00:00 14.8 18 Este 26 Este 0 -- -- 58
2019-04-17 11:00:00 12.6 16 Este 24 Este 0 -- -- 66
2019-04-17 10:00:00 10.5 13 Este 22 Este 0 -- -- 72
2019-04-17 09:00:00 8.2 9 Este 17 Este 0 -- -- 80
2019-04-17 08:00:00 7.4 13 Este 21 Este 0 -- -- 80
2019-04-17 07:00:00 7.3 16 Este 22 Este 0 -- -- 79
2019-04-17 06:00:00 7.3 10 Este 22 Este 0 -- -- 80
2019-04-17 05:00:00 8.3 15 Este 30 Este 0 -- -- 76
2019-04-17 04:00:00 8.4 16 Este 22 Nordeste 0 -- -- 70
2019-04-17 03:00:00 8.5 14 Nordeste 22 Este 0 -- -- 66
2019-04-17 02:00:00 9.3 11 Este 19 Este 0 -- -- 62
2019-04-17 01:00:00 9.5 11 Nordeste 14 Nordeste 0 -- -- 65
2019-04-17 00:00:00 9.5 10 Nordeste 14 Nordeste 0 -- -- 64
2019-04-16 23:00:00 10.5 11 Este 15 Este 0 -- -- 61
2019-04-16 22:00:00 11.6 12 Este 13 Este 0 -- -- 57
2019-04-16 21:00:00 14.4 9 Este 25 Sudeste 0 -- -- 43
2019-04-16 20:00:00 16.3 13 Sudeste 27 Sudeste 0 -- -- 37
2019-04-16 19:00:00 16.7 16 Este 30 Este 0 -- -- 37
2019-04-16 18:00:00 17.2 14 Sudeste 28 Sudeste 0 -- -- 35
2019-04-16 17:00:00 16.4 14 Sudeste 31 Sur 0 -- -- 36
2019-04-16 16:00:00 16.3 11 Sudeste 28 Sudeste 0 -- -- 38
2019-04-16 15:00:00 15 13 Sudeste 26 Este 0 -- -- 46
2019-04-16 14:00:00 13.3 9 Sudeste 18 Sudeste 0 -- -- 51
2019-04-16 13:00:00 12 5 Este 13 Este 0 -- -- 55
2019-04-16 12:00:00 10.4 5 Nordeste 16 Este 0 -- -- 69
2019-04-16 11:00:00 8.5 6 Este 17 Este 0 -- -- 82
2019-04-16 10:00:00 6.8 11 Este 20 Este 0 -- -- 90
2019-04-16 09:00:00 4.8 5 Este 9 Este 0 -- -- 96
2019-04-16 08:00:00 0.9 2 Norte 8 Norte 0 -- -- 93
2019-04-16 07:00:00 1.2 2 Oeste 14 Norte 0 -- -- 91
2019-04-16 06:00:00 1.9 11 Noroeste 15 Noroeste 0 -- -- 91
2019-04-16 05:00:00 2.8 11 Norte 19 Noroeste 0 -- -- 89
2019-04-16 04:00:00 4.7 12 Norte 19 Noroeste 0 -- -- 88
2019-04-16 03:00:00 4.6 11 Oeste 16 Oeste 0 -- -- 90
2019-04-16 02:00:00 5.7 13 Oeste 23 Oeste 0 -- -- 87
2019-04-16 01:00:00 5.9 6 Oeste 14 Oeste 0 -- -- 88
2019-04-16 00:00:00 6.4 7 Oeste 25 Oeste 0 -- -- 85
2019-04-15 23:00:00 7.3 16 Oeste 26 Oeste 0 -- -- 83
2019-04-15 22:00:00 8.4 18 Oeste 40 Oeste 0 -- -- 75
2019-04-15 21:00:00 10.4 26 Oeste 36 Oeste 0 -- -- 70
2019-04-15 20:00:00 11.5 28 Noroeste 44 Noroeste 0 -- -- 68
2019-04-15 19:00:00 12.7 27 Oeste 37 Noroeste 0 -- -- 62
2019-04-15 18:00:00 12.9 13 Oeste 32 Oeste 0 -- -- 67
2019-04-15 17:00:00 11.6 25 Oeste 43 Oeste 0 -- -- 70
2019-04-15 16:00:00 14.5 31 Oeste 57 Sudoeste 0 -- -- 67
2019-04-15 15:00:00 16.5 37 Sudoeste 52 Sudoeste 0 -- -- 56
2019-04-15 14:00:00 16.3 33 Sudoeste 50 Sudoeste 0 -- -- 70
2019-04-15 13:00:00 14.9 37 Sudoeste 63 Sudoeste 7 -- -- 82
2019-04-15 12:00:00 17.3 32 Sur 54 Sur 0 -- -- 64
2019-04-15 11:00:00 14.3 22 Sudeste 31 Sudeste 0 -- -- 80
2019-04-15 10:00:00 13.4 15 Sudeste 25 Sudeste 0 -- -- 84
2019-04-15 09:00:00 11.7 13 Sudeste 21 Este 0 -- -- 88
2019-04-15 08:00:00 10.8 14 Este 18 Este 0 -- -- 89
2019-04-15 07:00:00 10.3 9 Este 12 Este 0 -- -- 89
2019-04-15 06:00:00 10.3 8 Este 12 Este 0 -- -- 87
2019-04-15 05:00:00 10.8 8 Este 16 Este 0 -- -- 84
2019-04-15 04:00:00 11.9 7 Este 9 Este 0 -- -- 84
2019-04-15 03:00:00 12.1 6 Este 9 Este 0 -- -- 83
2019-04-15 02:00:00 12.6 5 Sudeste 16 Sur 0 -- -- 80
2019-04-15 01:00:00 11.7 13 Sur 15 Sur 0 -- -- 82
2019-04-15 00:00:00 12.1 8 Sudeste 14 Sudeste 0 -- -- 75
2019-04-14 23:00:00 13.2 9 Sudeste 12 Sudeste 0 -- -- 72
2019-04-14 22:00:00 14.6 11 Sur 24 Sur 0 -- -- 68
2019-04-14 21:00:00 16.7 18 Sur 33 Sur 0 -- -- 59
2019-04-14 20:00:00 18.5 22 Sur 33 Sur 0 -- -- 54
2019-04-14 19:00:00 19.8 20 Sur 26 Sur 0 -- -- 50
2019-04-14 18:00:00 20.9 12 Sur 28 Sur 0 -- -- 45
2019-04-14 17:00:00 20.3 9 Sur 23 Sur 0 -- -- 46
2019-04-14 16:00:00 19.9 5 Sur 20 Sudoeste 0 -- -- 48
2019-04-14 15:00:00 19.7 8 Oeste 22 Sudoeste 0 -- -- 47
2019-04-14 14:00:00 19.3 9 Sudoeste 25 Sudoeste 0 -- -- 51
2019-04-14 13:00:00 18.1 9 Oeste 20 Sudoeste 0 -- -- 54
2019-04-14 12:00:00 16.7 10 Sudoeste 19 Sudoeste 0 -- -- 62
2019-04-14 11:00:00 15.3 10 Oeste 17 Oeste 0 -- -- 71
2019-04-14 10:00:00 12.5 8 Noroeste 13 Noroeste 0 -- -- 83
2019-04-14 09:00:00 9.7 2 Noroeste 6 Sudoeste 0 -- -- 92
2019-04-14 08:00:00 8.3 4 Sudoeste 12 Oeste 0 -- -- 89
2019-04-14 07:00:00 9.6 10 Oeste 19 Oeste 0 -- -- 88
2019-04-14 06:00:00 9.9 13 Oeste 22 Oeste 0 -- -- 87
2019-04-14 05:00:00 10.2 10 Noroeste 18 Oeste 0 -- -- 86
2019-04-14 04:00:00 10.7 14 Noroeste 22 Oeste 0 -- -- 84
2019-04-14 03:00:00 11.5 20 Noroeste 27 Oeste 0 -- -- 80
2019-04-14 02:00:00 12.1 14 Noroeste 24 Noroeste 0 -- -- 71
2019-04-14 01:00:00 13.1 17 Noroeste 22 Oeste 0 -- -- 65
2019-04-14 00:00:00 13.9 13 Noroeste 21 Oeste 0 -- -- 59
2019-04-13 23:00:00 13.5 7 Oeste 14 Oeste 0 -- -- 56
2019-04-13 22:00:00 14.7 11 Oeste 19 Noroeste 0 -- -- 51
2019-04-13 21:00:00 16.1 14 Noroeste 26 Noroeste 0 -- -- 45
2019-04-13 20:00:00 17.9 17 Noroeste 27 Noroeste 0 -- -- 40
2019-04-13 19:00:00 18.8 10 Sudoeste 21 Oeste 0 -- -- 40
2019-04-13 18:00:00 19.1 15 Sudoeste 24 Sudoeste 0 -- -- 35
2019-04-13 17:00:00 19.4 12 Oeste 27 Sudoeste 0 -- -- 35
2019-04-13 16:00:00 19.3 12 Sudoeste 25 Sudoeste 0 -- -- 34
2019-04-13 15:00:00 17.8 11 Sudoeste 22 Oeste 0 -- -- 38
2019-04-13 14:00:00 16.2 13 Sudoeste 23 Sudoeste 0 -- -- 41
2019-04-13 13:00:00 14.6 9 Sur 14 Sudoeste 0 -- -- 45
2019-04-13 12:00:00 12.6 5 Este 10 Este 0 -- -- 48
2019-04-13 11:00:00 10.5 5 Sudeste 13 Sudeste 0 -- -- 54
2019-04-13 10:00:00 8.1 0 Calma 5 Noroeste 0 -- -- 62
2019-04-13 09:00:00 3 3 Norte 8 Noroeste 0 -- -- 81
2019-04-13 08:00:00 1.8 6 Noroeste 10 Noroeste 0 -- -- 82
2019-04-13 07:00:00 2 7 Noroeste 9 Norte 0 -- -- 80
2019-04-13 06:00:00 4 6 Nordeste 10 Norte 0 -- -- 74
2019-04-13 05:00:00 3.8 7 Norte 10 Norte 0 -- -- 76
2019-04-13 04:00:00 4.6 5 Norte 14 Nordeste 0 -- -- 68
2019-04-13 03:00:00 4.7 10 Nordeste 14 Nordeste 0 -- -- 68
2019-04-13 02:00:00 4.9 6 Nordeste 12 Noroeste 0 -- -- 69
2019-04-13 01:00:00 6.2 8 Nordeste 13 Este 0 -- -- 64
2019-04-13 00:00:00 8.1 9 Este 14 Este 0 -- -- 58
2019-04-12 23:00:00 9.3 9 Este 13 Sudeste 0 -- -- 51
2019-04-12 22:00:00 10.1 10 Este 13 Este 0 -- -- 45
2019-04-12 21:00:00 13 10 Este 18 Este 0 -- -- 36
2019-04-12 20:00:00 15.5 10 Este 16 Este 0 -- -- 28
2019-04-12 19:00:00 16.3 8 Este 13 Este 0 -- -- 28
2019-04-12 18:00:00 16.1 8 Nordeste 14 Este 0 -- -- 27
2019-04-12 17:00:00 15.5 7 Sudoeste 18 Sudoeste 0 -- -- 33
2019-04-12 16:00:00 14.3 8 Oeste 19 Sudoeste 0 -- -- 37
2019-04-12 15:00:00 12.7 5 Noroeste 19 Oeste 0 -- -- 45
2019-04-12 14:00:00 10.7 9 Oeste 18 Oeste 0 -- -- 59
2019-04-12 13:00:00 8.6 4 Sur 14 Oeste 0 -- -- 68
2019-04-12 12:00:00 7.3 2 Sudeste 10 Oeste 0 -- -- 73
2019-04-12 11:00:00 5.8 6 Oeste 12 Oeste 0 -- -- 82
2019-04-12 10:00:00 4.6 4 Oeste 7 Oeste 0 -- -- 90
2019-04-12 09:00:00 3 3 Norte 8 Noroeste 0 -- -- 94
2019-04-12 08:00:00 0.9 6 Norte 7 Norte 0 -- -- 94
2019-04-12 07:00:00 -0.9 6 Norte 9 Norte 0 -- -- 93
2019-04-12 06:00:00 -1.1 6 Norte 11 Noroeste 0 -- -- 91
2019-04-12 05:00:00 -0.6 9 Noroeste 11 Noroeste 0 -- -- 91
2019-04-12 04:00:00 -0.1 7 Noroeste 9 Noroeste 0 -- -- 89
2019-04-12 03:00:00 0.6 2 Norte 7 Norte 0 -- -- 88
2019-04-12 02:00:00 1.9 3 Sudeste 13 Nordeste 0 -- -- 86
2019-04-12 01:00:00 3 4 Nordeste 9 Norte 0 -- -- 82
2019-04-12 00:00:00 3.4 10 Norte 12 Norte 0 -- -- 81
2019-04-11 23:00:00 5.2 6 Nordeste 16 Norte 0 -- -- 76
2019-04-11 22:00:00 6.4 10 Nordeste 18 Nordeste 0 -- -- 70
2019-04-11 21:00:00 9 11 Nordeste 28 Norte 0 -- -- 60
2019-04-11 20:00:00 12.3 10 Nordeste 20 Norte 0 -- -- 44
2019-04-11 19:00:00 11.8 10 Norte 20 Norte 0 -- -- 44
2019-04-11 18:00:00 12.3 12 Norte 21 Norte 0 -- -- 44
2019-04-11 17:00:00 12.2 12 Norte 21 Norte 0 -- -- 43
2019-04-11 16:00:00 12.2 8 Noroeste 22 Norte 0 -- -- 43
2019-04-11 15:00:00 11.7 8 Nordeste 20 Norte 0 -- -- 44
2019-04-11 14:00:00 11.7 12 Noroeste 20 Oeste 0 -- -- 43
2019-04-11 13:00:00 11.1 8 Oeste 19 Oeste 0 -- -- 43
2019-04-11 12:00:00 9.9 8 Noroeste 23 Norte 0 -- -- 52
2019-04-11 11:00:00 7.7 9 Noroeste 17 Norte 0 -- -- 69
2019-04-11 10:00:00 4.6 8 Noroeste 12 Noroeste 0 -- -- 82
2019-04-11 09:00:00 0.3 8 Noroeste 12 Norte 0 -- -- 91
2019-04-11 08:00:00 -0.7 10 Noroeste 13 Noroeste 0 -- -- 92
2019-04-11 07:00:00 0 12 Noroeste 16 Noroeste 0 -- -- 90
2019-04-11 06:00:00 0.4 11 Norte 16 Noroeste 0 -- -- 89
2019-04-11 05:00:00 0.6 10 Noroeste 14 Noroeste 0 -- -- 89
2019-04-11 04:00:00 0.9 10 Noroeste 13 Noroeste 0 -- -- 87
2019-04-11 03:00:00 1.3 12 Noroeste 14 Noroeste 0 -- -- 86
2019-04-11 02:00:00 2.2 9 Noroeste 12 Oeste 0 -- -- 85
2019-04-11 01:00:00 2.4 8 Noroeste 13 Noroeste 0 -- -- 86
2019-04-11 00:00:00 3 8 Noroeste 12 Noroeste 0 -- -- 84
2019-04-10 23:00:00 3.9 8 Norte 12 Norte 0 -- -- 77
2019-04-10 22:00:00 5.2 7 Norte 22 Noroeste 0 -- -- 73
2019-04-10 21:00:00 7.8 17 Noroeste 36 Noroeste 0 -- -- 63
2019-04-10 20:00:00 10.5 25 Noroeste 36 Norte 0 -- -- 55
2019-04-10 19:00:00 11.8 26 Norte 36 Norte 0 -- -- 50
2019-04-10 18:00:00 13 28 Noroeste 40 Noroeste 0 -- -- 45
2019-04-10 17:00:00 12.2 24 Norte 34 Norte 0 -- -- 50
2019-04-10 16:00:00 11.7 14 Nordeste 26 Norte 0 -- -- 62
2019-04-10 15:00:00 9.1 5 Nordeste 30 Nordeste 0.6 -- -- 78
2019-04-10 14:00:00 9.1 23 Oeste 33 Noroeste 0.4 -- -- 77
2019-04-10 13:00:00 9.6 14 Oeste 33 Oeste 0 -- -- 67
2019-04-10 12:00:00 8.2 23 Oeste 32 Oeste 0 -- -- 74
2019-04-10 11:00:00 7.2 18 Oeste 28 Oeste 0 -- -- 76
2019-04-10 10:00:00 6.1 16 Oeste 21 Oeste 0 -- -- 82
2019-04-10 09:00:00 4.7 13 Oeste 23 Oeste 0 -- -- 84
2019-04-10 08:00:00 3.9 3 Noroeste 9 Oeste 0 -- -- 86
2019-04-10 07:00:00 3.9 8 Oeste 18 Oeste 0 -- -- 85
2019-04-10 06:00:00 4.1 6 Sudoeste 22 Oeste 0 -- -- 84
2019-04-10 05:00:00 4.5 17 Oeste 27 Oeste 0 -- -- 80
2019-04-10 04:00:00 4.4 5 Sudoeste 10 Sudoeste 0 -- -- 85
2019-04-10 03:00:00 3.9 9 Oeste 18 Oeste 0 -- -- 88
2019-04-10 02:00:00 2.6 8 Sudoeste 21 Oeste 0 -- -- 89
2019-04-10 01:00:00 3.5 13 Oeste 31 Oeste 0 -- -- 87
2019-04-10 00:00:00 4.4 10 Oeste 23 Oeste 0 -- -- 84
2019-04-09 23:00:00 4.8 14 Oeste 26 Oeste 0 -- -- 82
2019-04-09 22:00:00 5.9 18 Oeste 31 Oeste 0 -- -- 76
2019-04-09 21:00:00 6.3 27 Oeste 46 Oeste 0 -- -- 74
2019-04-09 20:00:00 8.8 30 Oeste 46 Oeste 0 -- -- 66
2019-04-09 19:00:00 9.7 24 Oeste 42 Oeste 0 -- -- 57
2019-04-09 18:00:00 10.3 24 Oeste 39 Oeste 0 -- -- 53
2019-04-09 17:00:00 11.5 23 Oeste 35 Oeste 0 -- -- 56
2019-04-09 16:00:00 10.7 21 Oeste 32 Oeste 0 -- -- 65
2019-04-09 15:00:00 8.5 27 Oeste 36 Noroeste 0 -- -- 70
2019-04-09 14:00:00 7.7 27 Oeste 41 Oeste 0 -- -- 75
2019-04-09 13:00:00 5.8 26 Oeste 36 Oeste 0.2 -- -- 82
2019-04-09 12:00:00 5.5 21 Oeste 28 Oeste 0 -- -- 89
2019-04-09 11:00:00 4.5 17 Oeste 28 Sudoeste 0.6 -- -- 92
2019-04-09 10:00:00 4.8 15 Sur 23 Sur 0.8 -- -- 94
2019-04-09 09:00:00 4.7 14 Sur 22 Sur 0 -- -- 93
2019-04-09 08:00:00 4.5 12 Sudeste 19 Sur 0 -- -- 94
2019-04-09 07:00:00 4.3 13 Sur 21 Sur 0 -- -- 93
2019-04-09 06:00:00 4.1 11 Sur 18 Sur 0 -- -- 92
2019-04-09 05:00:00 4.1 15 Sur 23 Sudoeste 0 -- -- 91
2019-04-09 04:00:00 4.3 17 Sur 27 Sur 0 -- -- 89
2019-04-09 03:00:00 4.1 17 Sur 27 Sur 0 -- -- 85
2019-04-09 02:00:00 4.3 20 Sur 27 Sur 0 -- -- 82
2019-04-09 01:00:00 4.2 12 Sur 33 Sudoeste 0 -- -- 81
2019-04-09 00:00:00 4.3 19 Sur 26 Sur 0 -- -- 84
2019-04-08 23:00:00 5 14 Sur 24 Sur 0 -- -- 83
2019-04-08 22:00:00 6 16 Sur 26 Sur 0 -- -- 77
2019-04-08 21:00:00 7.2 19 Sudoeste 37 Sur 0 -- -- 71
2019-04-08 20:00:00 10.2 25 Sudoeste 39 Sudoeste 0 -- -- 57
2019-04-08 19:00:00 10.7 29 Sudoeste 41 Sudoeste 0 -- -- 56
2019-04-08 18:00:00 12.1 32 Sudoeste 44 Sudoeste 0 -- -- 47
2019-04-08 17:00:00 12.4 25 Sudoeste 38 Sur 0 -- -- 50
2019-04-08 16:00:00 11.3 14 Oeste 25 Sudoeste 0 -- -- 53
2019-04-08 15:00:00 11.5 5 Sur 13 Sur 0 -- -- 51
2019-04-08 14:00:00 9.9 4 Este 11 Este 0 -- -- 61
2019-04-08 13:00:00 9.3 3 Sudoeste 17 Oeste 0 -- -- 61
2019-04-08 12:00:00 8.8 10 Oeste 20 Oeste 0 -- -- 64
2019-04-08 11:00:00 7.7 9 Oeste 15 Oeste 0 -- -- 85
2019-04-08 10:00:00 5.4 3 Sur 5 Sudeste 0 -- -- 97
2019-04-08 09:00:00 3.1 0 Calma 6 Noroeste 0 -- -- 96
2019-04-08 08:00:00 2.9 2 Noroeste 12 Oeste 0 -- -- 96
2019-04-08 07:00:00 2.9 2 Oeste 8 Norte 0 -- -- 96
2019-04-08 06:00:00 3.7 7 Norte 14 Norte 0 -- -- 96
2019-04-08 05:00:00 3.8 8 Noroeste 12 Norte 0.4 -- -- 96
2019-04-08 04:00:00 3.9 7 Noroeste 17 Nordeste 0 -- -- 96
2019-04-08 03:00:00 4.1 9 Nordeste 22 Nordeste 0.2 -- -- 96
2019-04-08 02:00:00 4.5 14 Nordeste 21 Nordeste 0.4 -- -- 96
2019-04-08 01:00:00 4.5 16 Nordeste 22 Nordeste 0.6 -- -- 95
2019-04-08 00:00:00 4.9 11 Nordeste 17 Nordeste 0.6 -- -- 95
2019-04-07 23:00:00 4.8 8 Este 16 Sudeste 1.2 -- -- 94
2019-04-07 22:00:00 4.9 11 Sudeste 15 Sudeste 0.6 -- -- 92
2019-04-07 21:00:00 4.9 11 Sudeste 18 Sur 0 -- -- 91
2019-04-07 20:00:00 5 11 Sur 22 Sudoeste 1.4 -- -- 91
2019-04-07 19:00:00 5.3 16 Sur 32 Sudoeste 0.8 -- -- 88
2019-04-07 18:00:00 6.1 26 Sudoeste 41 Sudoeste 0.2 -- -- 82
2019-04-07 17:00:00 9.1 33 Sudoeste 51 Sur 0 -- -- 60
2019-04-07 16:00:00 10.8 22 Sur 34 Sur 0 -- -- 49
2019-04-07 15:00:00 11.2 15 Sur 31 Sur 0 -- -- 42
2019-04-07 14:00:00 9.9 10 Sur 27 Sudoeste 0 -- -- 46
2019-04-07 13:00:00 8.3 13 Sudoeste 23 Sudoeste 0 -- -- 53
2019-04-07 12:00:00 7.2 10 Oeste 30 Oeste 0 -- -- 59
2019-04-07 11:00:00 6.3 22 Oeste 35 Oeste 0 -- -- 64
2019-04-07 10:00:00 3.5 8 Oeste 15 Oeste 0 -- -- 79
2019-04-07 09:00:00 1.3 11 Oeste 28 Oeste 0 -- -- 87
2019-04-07 08:00:00 0.1 21 Oeste 27 Oeste 0 -- -- 89
2019-04-07 07:00:00 0.2 18 Oeste 31 Oeste 0 -- -- 89
2019-04-07 06:00:00 0.6 19 Oeste 27 Oeste 0 -- -- 88
2019-04-07 05:00:00 0.2 16 Oeste 27 Oeste 0 -- -- 91
2019-04-07 04:00:00 0.1 9 Oeste 15 Oeste 0 -- -- 87
2019-04-07 03:00:00 1.2 9 Oeste 21 Oeste 0 -- -- 86
2019-04-07 02:00:00 2.1 17 Oeste 22 Oeste 0 -- -- 87
2019-04-07 01:00:00 2.2 10 Oeste 27 Oeste 0 -- -- 83
2019-04-07 00:00:00 2.7 21 Oeste 34 Oeste 0 -- -- 82
2019-04-06 23:00:00 3 21 Oeste 30 Oeste 0 -- -- 81
2019-04-06 22:00:00 3.7 12 Oeste 37 Oeste 0 -- -- 72
2019-04-06 21:00:00 4.3 27 Oeste 48 Oeste 0 -- -- 66
2019-04-06 20:00:00 5.1 28 Oeste 50 Oeste 0 -- -- 70
2019-04-06 19:00:00 5.6 38 Oeste 60 Oeste 0 -- -- 72
2019-04-06 18:00:00 7.2 32 Oeste 53 Oeste 0 -- -- 67
2019-04-06 17:00:00 7.1 35 Oeste 52 Oeste 0 -- -- 69
2019-04-06 16:00:00 8.6 35 Oeste 53 Oeste 0 -- -- 59
2019-04-06 15:00:00 7.7 23 Oeste 36 Oeste 0 -- -- 74
2019-04-06 14:00:00 6.4 22 Sudoeste 40 Sur 0.2 -- -- 80
2019-04-06 13:00:00 6.7 29 Sur 44 Sudoeste 0 -- -- 71
2019-04-06 12:00:00 4.1 32 Sudoeste 43 Sudoeste 0 -- -- 83
2019-04-06 11:00:00 3.8 30 Sur 44 Sur 0 -- -- 86
2019-04-06 10:00:00 3.7 31 Sur 41 Sur 0 -- -- 87
2019-04-06 09:00:00 1.7 26 Sur 36 Sur 0 -- -- 91
2019-04-06 08:00:00 1.3 24 Sur 32 Sur 0 -- -- 92
2019-04-06 07:00:00 1.6 17 Sur 26 Sur 0 -- -- 93
2019-04-06 06:00:00 1.6 13 Sur 19 Sur 0 -- -- 93
2019-04-06 05:00:00 1 8 Sur 10 Sur 0 -- -- 92
2019-04-06 04:00:00 0.6 8 Sur 9 Sur 0 -- -- 92
2019-04-06 03:00:00 1 8 Sudoeste 13 Sudoeste 0 -- -- 89
2019-04-06 02:00:00 1.2 9 Oeste 12 Noroeste 0 -- -- 90
2019-04-06 01:00:00 1.4 8 Oeste 19 Oeste 0 -- -- 87
2019-04-06 00:00:00 1.5 11 Oeste 14 Oeste 0 -- -- 88
2019-04-05 23:00:00 1.4 7 Sudoeste 10 Sudoeste 0 -- -- 88
2019-04-05 22:00:00 2.9 5 Noroeste 8 Oeste 0 -- -- 84
2019-04-05 21:00:00 4.1 0 Calma 11 Sudeste 0.2 -- -- 82
2019-04-05 20:00:00 3.9 13 Sudeste 37 Sudoeste 1.6 -- -- 84
2019-04-05 19:00:00 6.2 30 Sudoeste 38 Sudoeste 0 -- -- 67
2019-04-05 18:00:00 7.9 20 Oeste 32 Sudoeste 0.2 -- -- 53
2019-04-05 17:00:00 8.6 13 Sur 35 Sur 0 -- -- 45
2019-04-05 16:00:00 8.9 9 Sudeste 19 Sur 0 -- -- 52
2019-04-05 15:00:00 8 10 Sudeste 18 Este 0 -- -- 52
2019-04-05 14:00:00 7.3 7 Sur 17 Sur 0 -- -- 59
2019-04-05 13:00:00 5.5 5 Sudoeste 14 Noroeste 0 -- -- 72
2019-04-05 12:00:00 4.3 9 Noroeste 17 Noroeste 0 -- -- 80
2019-04-05 11:00:00 4.6 3 Sur 9 Sur 0 -- -- 83
2019-04-05 10:00:00 2.3 0 Calma 4 Sur 0 -- -- 94
2019-04-05 09:00:00 1.3 3 Sudeste 6 Sudeste 0 -- -- 95
2019-04-05 08:00:00 1.2 7 Noroeste 20 Noroeste 0.2 -- -- 94
2019-04-05 07:00:00 2.4 13 Oeste 27 Sudoeste 0.2 -- -- 94
2019-04-05 06:00:00 2.6 16 Sur 25 Sur 0 -- -- 95
2019-04-05 05:00:00 3 15 Sur 21 Sur 0 -- -- 95
2019-04-05 04:00:00 3.2 13 Sur 19 Sur 0 -- -- 95
2019-04-05 03:00:00 2.9 12 Sur 25 Sur 0 -- -- 94
2019-04-05 02:00:00 2.8 19 Sur 31 Sur 1 -- -- 94
2019-04-05 01:00:00 3 16 Sur 25 Sur 0.2 -- -- 93
2019-04-05 00:00:00 2.8 18 Sur 28 Sur 0 -- -- 92
2019-04-04 23:00:00 2.8 18 Sur 32 Sur 0.2 -- -- 92
2019-04-04 22:00:00 2.9 22 Sur 35 Sur 0 -- -- 91
2019-04-04 21:00:00 3.3 23 Sur 35 Sur 0.4 -- -- 89
2019-04-04 20:00:00 3.9 28 Sur 43 Sudoeste 0 -- -- 85
2019-04-04 19:00:00 5.2 31 Sudoeste 45 Sudoeste 0 -- -- 75
2019-04-04 18:00:00 6.6 26 Sudoeste 39 Sur 0 -- -- 61
2019-04-04 17:00:00 8.7 25 Sur 39 Sur 0 -- -- 49
2019-04-04 16:00:00 9.5 18 Sudoeste 29 Sudoeste 0 -- -- 39
2019-04-04 15:00:00 9 12 Sur 28 Sudoeste 0 -- -- 41
2019-04-04 14:00:00 8 15 Sudoeste 27 Oeste 0 -- -- 44
2019-04-04 13:00:00 7.1 19 Oeste 49 Oeste 0 -- -- 48
2019-04-04 12:00:00 6.2 16 Oeste 29 Oeste 0 -- -- 55
2019-04-04 11:00:00 4 13 Oeste 22 Oeste 0 -- -- 65
2019-04-04 10:00:00 1.6 4 Sudoeste 10 Oeste 0 -- -- 78
2019-04-04 09:00:00 -0.9 6 Sur 14 Oeste 0 -- -- 85
2019-04-04 08:00:00 -3 7 Sudoeste 19 Sudoeste 0 -- -- 87
2019-04-04 07:00:00 -2.9 12 Sudoeste 16 Oeste 0 -- -- 87
2019-04-04 06:00:00 -2.1 8 Sudoeste 12 Sudoeste 0 -- -- 83
2019-04-04 05:00:00 -3.3 8 Oeste 12 Sudoeste 0 -- -- 82
2019-04-04 04:00:00 -2.3 3 Sudeste 10 Oeste 0 -- -- 84
2019-04-04 03:00:00 -1.9 3 Sudoeste 16 Oeste 0 -- -- 83
2019-04-04 02:00:00 -0.3 10 Oeste 24 Oeste 0 -- -- 82
2019-04-04 01:00:00 0 16 Oeste 26 Oeste 0 -- -- 82
2019-04-04 00:00:00 0.6 19 Oeste 25 Oeste 0 -- -- 78
2019-04-03 23:00:00 0.8 13 Oeste 20 Oeste 0 -- -- 72
2019-04-03 22:00:00 2.1 13 Oeste 31 Noroeste 0 -- -- 60
2019-04-03 21:00:00 4 20 Noroeste 41 Noroeste 0 -- -- 49
2019-04-03 20:00:00 6.2 32 Noroeste 44 Noroeste 0 -- -- 40
2019-04-03 19:00:00 7.6 32 Noroeste 50 Noroeste 0 -- -- 35
2019-04-03 18:00:00 8.7 36 Noroeste 58 Noroeste 0 -- -- 28
2019-04-03 17:00:00 8.2 26 Noroeste 39 Oeste 0 -- -- 42
2019-04-03 16:00:00 7.4 33 Noroeste 52 Noroeste 0 -- -- 50
2019-04-03 15:00:00 8.7 31 Noroeste 49 Oeste 0 -- -- 44
2019-04-03 14:00:00 5.9 31 Oeste 44 Oeste 0 -- -- 63
2019-04-03 13:00:00 8.3 24 Oeste 40 Oeste 0 -- -- 49
2019-04-03 12:00:00 7.7 24 Oeste 42 Oeste 0 -- -- 50
2019-04-03 11:00:00 6.1 32 Oeste 42 Oeste 0 -- -- 62
2019-04-03 10:00:00 4.8 30 Oeste 42 Oeste 0 -- -- 67
2019-04-03 09:00:00 2.6 20 Oeste 29 Oeste 0 -- -- 82
2019-04-03 08:00:00 0.8 12 Oeste 19 Oeste 0 -- -- 83
2019-04-03 07:00:00 2.3 14 Oeste 24 Oeste 0 -- -- 78
2019-04-03 06:00:00 3.5 19 Oeste 28 Oeste 0 -- -- 76
2019-04-03 05:00:00 4.5 19 Oeste 37 Oeste 0 -- -- 74
2019-04-03 04:00:00 4.9 22 Oeste 41 Oeste 0 -- -- 73
2019-04-03 03:00:00 5 17 Oeste 28 Oeste 0 -- -- 69
2019-04-03 02:00:00 6.3 24 Oeste 32 Oeste 0 -- -- 65
2019-04-03 01:00:00 5.5 12 Oeste 17 Noroeste 0 -- -- 69
2019-04-03 00:00:00 6.4 10 Noroeste 17 Noroeste 0 -- -- 63
2019-04-02 23:00:00 7.7 11 Noroeste 24 Noroeste 0 -- -- 58
2019-04-02 22:00:00 9.3 19 Noroeste 32 Noroeste 0 -- -- 52
2019-04-02 21:00:00 10.9 25 Oeste 43 Noroeste 0 -- -- 46
2019-04-02 20:00:00 13.3 31 Oeste 46 Noroeste 0 -- -- 39
2019-04-02 19:00:00 15.6 32 Oeste 45 Oeste 0 -- -- 35
2019-04-02 18:00:00 17.2 24 Oeste 39 Oeste 0 -- -- 27
2019-04-02 17:00:00 17.8 21 Oeste 36 Oeste 0 -- -- 24
2019-04-02 16:00:00 16.5 17 Sur 27 Sudoeste 0 -- -- 35
2019-04-02 15:00:00 16.1 12 Sur 24 Sur 0 -- -- 39
2019-04-02 14:00:00 15.2 13 Sur 25 Sur 0 -- -- 39
2019-04-02 13:00:00 13.4 5 Este 17 Este 0 -- -- 44
2019-04-02 12:00:00 12.7 4 Noroeste 11 Noroeste 0 -- -- 44
2019-04-02 11:00:00 9.8 5 Norte 15 Norte 0 -- -- 62
2019-04-02 10:00:00 5.2 4 Norte 7 Noroeste 0 -- -- 73
2019-04-02 09:00:00 1.5 3 Norte 9 Noroeste 0 -- -- 80
2019-04-02 08:00:00 0.9 8 Norte 12 Norte 0 -- -- 82
2019-04-02 07:00:00 1.8 8 Norte 14 Noroeste 0 -- -- 79
2019-04-02 06:00:00 2.2 7 Norte 14 Noroeste 0 -- -- 80
2019-04-02 05:00:00 2.7 6 Noroeste 12 Norte 0 -- -- 79
2019-04-02 04:00:00 3.3 10 Norte 12 Noroeste 0 -- -- 78
2019-04-02 03:00:00 5 11 Norte 14 Norte 0 -- -- 73
2019-04-02 02:00:00 5.8 9 Norte 15 Norte 0 -- -- 71
2019-04-02 01:00:00 6.2 10 Norte 17 Norte 0 -- -- 71
2019-04-02 00:00:00 8.6 11 Nordeste 17 Nordeste 0 -- -- 64
2019-04-01 23:00:00 9.9 14 Nordeste 20 Nordeste 0 -- -- 60
2019-04-01 22:00:00 11.3 10 Nordeste 17 Nordeste 0 -- -- 55
2019-04-01 21:00:00 13.7 8 Sudoeste 14 Sudoeste 0 -- -- 52
2019-04-01 20:00:00 15.4 4 Noroeste 13 Oeste 0 -- -- 34
2019-04-01 19:00:00 15.5 13 Oeste 24 Noroeste 0 -- -- 36
2019-04-01 18:00:00 15.5 13 Sudoeste 35 Sudoeste 0 -- -- 36
2019-04-01 17:00:00 16.8 7 Oeste 18 Sur 0 -- -- 35
2019-04-01 16:00:00 16.4 8 Sur 19 Nordeste 0 -- -- 34
2019-04-01 15:00:00 15.5 3 Norte 15 Sudoeste 0 -- -- 37
2019-04-01 14:00:00 14.1 6 Sur 17 Sudoeste 0 -- -- 44
2019-04-01 13:00:00 13 6 Sudeste 14 Sudoeste 0 -- -- 51
2019-04-01 12:00:00 11.5 3 Este 9 Sudeste 0 -- -- 60
2019-04-01 11:00:00 9.8 2 Este 6 Nordeste 0 -- -- 66
2019-04-01 10:00:00 6.8 4 Norte 8 Norte 0 -- -- 80
2019-04-01 09:00:00 1.9 4 Norte 10 Norte 0 -- -- 91
2019-04-01 08:00:00 0.6 8 Norte 9 Norte 0 -- -- 91
2019-04-01 07:00:00 0.7 8 Norte 9 Noroeste 0 -- -- 88
2019-04-01 06:00:00 2.1 4 Norte 10 Norte 0 -- -- 85
2019-04-01 05:00:00 2.3 9 Noroeste 10 Norte 0 -- -- 83
2019-04-01 04:00:00 2.9 6 Norte 13 Norte 0 -- -- 84
2019-04-01 03:00:00 3 8 Norte 10 Norte 0 -- -- 81
2019-04-01 02:00:00 5.9 6 Este 10 Este 0 -- -- 76
2019-04-01 01:00:00 6.6 8 Nordeste 21 Este 0 -- -- 73
2019-04-01 00:00:00 8.4 12 Este 22 Este 0 -- -- 63
2019-03-31 23:00:00 9.1 13 Nordeste 19 Nordeste 0 -- -- 60
2019-03-31 22:00:00 10.1 11 Nordeste 18 Nordeste 0 -- -- 55
2019-03-31 21:00:00 12 16 Norte 33 Norte 0 -- -- 47
2019-03-31 20:00:00 14.8 14 Nordeste 27 Nordeste 0 -- -- 38
2019-03-31 19:00:00 15.5 12 Nordeste 28 Este 0 -- -- 32
2019-03-31 18:00:00 16.6 10 Nordeste 24 Nordeste 0 -- -- 28
2019-03-31 17:00:00 17 13 Nordeste 28 Este 0 -- -- 28
2019-03-31 16:00:00 17 12 Este 28 Sudeste 0 -- -- 30
2019-03-31 15:00:00 17.3 15 Este 31 Este 0 -- -- 29
2019-03-31 14:00:00 16.3 14 Sudeste 27 Este 0 -- -- 34
2019-03-31 13:00:00 15.1 11 Este 23 Sudeste 0 -- -- 39
2019-03-31 12:00:00 13.4 10 Este 20 Nordeste 0 -- -- 40
2019-03-31 11:00:00 11.8 13 Este 21 Nordeste 0 -- -- 44
2019-03-31 10:00:00 8.4 6 Noroeste 10 Norte 0 -- -- 61
2019-03-31 09:00:00 3.2 6 Noroeste 14 Norte 0 -- -- 78
2019-03-31 08:00:00 1.8 11 Norte 14 Norte 0 -- -- 79
2019-03-31 07:00:00 2.5 10 Norte 15 Norte 0 -- -- 76
2019-03-31 06:00:00 5.1 14 Norte 17 Nordeste 0 -- -- 69
2019-03-31 05:00:00 5.5 8 Nordeste 17 Nordeste 0 -- -- 68
2019-03-31 03:00:00 5 6 Nordeste 10 Norte 0 -- -- 72
2019-03-31 01:00:00 6.2 6 Nordeste 12 Nordeste 0 -- -- 69
2019-03-31 00:00:00 7.2 6 Nordeste 15 Norte 0 -- -- 67
2019-03-30 23:00:00 8.4 12 Norte 18 Norte 0 -- -- 65
2019-03-30 22:00:00 10.3 11 Norte 19 Norte 0 -- -- 59
2019-03-30 21:00:00 11.7 15 Noroeste 22 Noroeste 0 -- -- 53
2019-03-30 20:00:00 13.3 12 Norte 19 Nordeste 0 -- -- 46
2019-03-30 19:00:00 15 5 Sudeste 15 Sur 0 -- -- 35
2019-03-30 18:00:00 16.1 8 Sudeste 14 Este 0 -- -- 30
2019-03-30 17:00:00 17.4 8 Sudeste 18 Sudeste 0 -- -- 27
2019-03-30 16:00:00 16.4 6 Sudeste 25 Sur 0 -- -- 30
2019-03-30 15:00:00 17.1 10 Sudeste 21 Sudeste 0 -- -- 33
2019-03-30 14:00:00 16.1 9 Sudeste 18 Este 0 -- -- 37
2019-03-30 13:00:00 14.9 8 Sudeste 20 Este 0 -- -- 38
2019-03-30 12:00:00 13.2 12 Nordeste 24 Este 0 -- -- 42
2019-03-30 11:00:00 11.9 10 Nordeste 19 Nordeste 0 -- -- 45
2019-03-30 10:00:00 9.7 12 Este 22 Nordeste 0 -- -- 50
2019-03-30 09:00:00 7.3 16 Este 22 Nordeste 0 -- -- 58
2019-03-30 08:00:00 6.3 12 Nordeste 16 Nordeste 0 -- -- 61
2019-03-30 07:00:00 6 12 Nordeste 19 Nordeste 0 -- -- 59
2019-03-30 06:00:00 6.2 12 Nordeste 23 Nordeste 0 -- -- 57
2019-03-30 05:00:00 6.3 11 Nordeste 17 Nordeste 0 -- -- 58
2019-03-30 04:00:00 5.5 7 Nordeste 12 Norte 0 -- -- 63
2019-03-30 03:00:00 6.9 3 Norte 14 Este 0 -- -- 56
2019-03-30 02:00:00 7.5 4 Nordeste 18 Este 0 -- -- 53
2019-03-30 01:00:00 6.7 9 Norte 16 Oeste 0 -- -- 56
2019-03-30 00:00:00 9.3 7 Sudeste 14 Sur 0 -- -- 47
2019-03-29 23:00:00 9.9 11 Sur 15 Sur 0 -- -- 45
2019-03-29 22:00:00 9.6 12 Sudeste 17 Sudeste 0 -- -- 44
2019-03-29 21:00:00 10.6 13 Sudeste 20 Sudeste 0 -- -- 42
2019-03-29 20:00:00 13.1 14 Sudeste 26 Sudeste 0 -- -- 36
2019-03-29 19:00:00 16.1 19 Sudeste 26 Sudeste 0 -- -- 32
2019-03-29 18:00:00 17.9 8 Sur 22 Sur 0 -- -- 28
2019-03-29 17:00:00 18.5 11 Sudeste 22 Oeste 0 -- -- 24
2019-03-29 16:00:00 17.9 8 Este 22 Sudoeste 0 -- -- 27
2019-03-29 15:00:00 17.5 12 Sur 25 Sudoeste 0 -- -- 30
2019-03-29 14:00:00 16.5 10 Sur 19 Sur 0 -- -- 34
2019-03-29 13:00:00 14.7 5 Este 19 Este 0 -- -- 38
2019-03-29 12:00:00 12.9 7 Este 18 Este 0 -- -- 42
2019-03-29 11:00:00 11.4 6 Este 14 Este 0 -- -- 45
2019-03-29 10:00:00 9.6 7 Este 14 Este 0 -- -- 48
2019-03-29 09:00:00 6.5 4 Noroeste 10 Noroeste 0 -- -- 63
2019-03-29 08:00:00 1 9 Noroeste 13 Noroeste 0 -- -- 81
2019-03-29 07:00:00 -0.1 10 Noroeste 13 Noroeste 0 -- -- 82
2019-03-29 06:00:00 0.2 6 Noroeste 13 Noroeste 0 -- -- 81
2019-03-29 05:00:00 0.6 9 Noroeste 13 Noroeste 0 -- -- 80
2019-03-29 04:00:00 0.5 8 Noroeste 14 Norte 0 -- -- 76
2019-03-29 03:00:00 1.5 9 Norte 19 Norte 0 -- -- 73
2019-03-29 02:00:00 1.4 12 Norte 15 Norte 0 -- -- 71
2019-03-29 01:00:00 3.2 6 Norte 15 Noroeste 0 -- -- 65
2019-03-29 00:00:00 4.3 8 Noroeste 10 Noroeste 0 -- -- 59
2019-03-28 23:00:00 6.1 2 Noroeste 14 Este 0 -- -- 56
2019-03-28 22:00:00 8 6 Este 21 Este 0 -- -- 50
2019-03-28 21:00:00 10.1 9 Este 28 Este 0 -- -- 46
2019-03-28 20:00:00 12.4 14 Este 25 Este 0 -- -- 38
2019-03-28 19:00:00 16.3 17 Este 31 Este 0 -- -- 30
2019-03-28 18:00:00 17.7 18 Este 33 Este 0 -- -- 25
2019-03-28 17:00:00 18.3 18 Este 35 Este 0 -- -- 23
2019-03-28 16:00:00 18.4 19 Este 39 Este 0 -- -- 22
2019-03-28 15:00:00 18 22 Este 37 Este 0 -- -- 20
2019-03-28 14:00:00 17.4 14 Este 32 Este 0 -- -- 18
2019-03-28 13:00:00 15.8 16 Este 31 Este 0 -- -- 25
2019-03-28 12:00:00 14.5 16 Este 31 Este 0 -- -- 23
2019-03-28 11:00:00 11.9 3 Sudeste 10 Noroeste 0 -- -- 31
2019-03-28 10:00:00 8.7 4 Nordeste 12 Norte 0 -- -- 34
2019-03-28 09:00:00 5.2 8 Norte 12 Noroeste 0 -- -- 47
2019-03-28 08:00:00 -0.9 9 Noroeste 13 Noroeste 0 -- -- 74
2019-03-28 07:00:00 -2.3 4 Norte 9 Norte 0 -- -- 75
2019-03-28 06:00:00 -2 8 Norte 12 Norte 0 -- -- 72
2019-03-28 05:00:00 -1.1 6 Noroeste 9 Norte 0 -- -- 69
2019-03-28 04:00:00 0.2 0 Calma 10 Norte 0 -- -- 63
2019-03-28 03:00:00 0.6 5 Noroeste 9 Noroeste 0 -- -- 61
2019-03-28 02:00:00 1.8 3 Norte 14 Nordeste 0 -- -- 58
2019-03-28 01:00:00 3.5 12 Este 15 Este 0 -- -- 53
2019-03-28 00:00:00 4.2 5 Nordeste 19 Este 0 -- -- 54
2019-03-27 23:00:00 7.2 9 Nordeste 16 Este 0 -- -- 42
2019-03-27 22:00:00 7.9 15 Este 25 Este 0 -- -- 38
2019-03-27 21:00:00 10.3 19 Nordeste 23 Nordeste 0 -- -- 30
2019-03-27 20:00:00 12 15 Este 27 Este 0 -- -- 29
2019-03-27 19:00:00 16 14 Este 32 Nordeste 0 -- -- 25
2019-03-27 18:00:00 17.9 19 Este 36 Este 0 -- -- 21
2019-03-27 17:00:00 18.6 21 Este 35 Este 0 -- -- 18
2019-03-27 16:00:00 19 23 Este 39 Sudeste 0 -- -- 14
2019-03-27 15:00:00 18.8 21 Este 36 Este 0 -- -- 15
2019-03-27 14:00:00 18.1 14 Este 29 Este 0 -- -- 16
2019-03-27 13:00:00 16.9 16 Este 32 Este 0 -- -- 17
2019-03-27 12:00:00 16.1 18 Este 30 Este 0 -- -- 15
2019-03-27 11:00:00 13.8 21 Nordeste 31 Nordeste 0 -- -- 15
2019-03-27 10:00:00 10.4 6 Noroeste 16 Noroeste 0 -- -- 16
2019-03-27 09:00:00 5.7 11 Noroeste 18 Norte 0 -- -- 34
2019-03-27 08:00:00 -0.9 9 Noroeste 15 Norte 0 -- -- 52
2019-03-27 07:00:00 -2.4 10 Norte 16 Noroeste 0 -- -- 54
2019-03-27 06:00:00 -2.3 8 Noroeste 13 Noroeste 0 -- -- 54
2019-03-27 05:00:00 -2 10 Noroeste 14 Noroeste 0 -- -- 53
2019-03-27 04:00:00 -0.5 6 Noroeste 12 Noroeste 0 -- -- 42
2019-03-27 03:00:00 2.9 3 Oeste 8 Sudoeste 0 -- -- 28
2019-03-27 02:00:00 5.2 8 Norte 26 Nordeste 0 -- -- 22
2019-03-27 01:00:00 7.6 14 Nordeste 33 Nordeste 0 -- -- 17
2019-03-27 00:00:00 7.9 24 Nordeste 42 Nordeste 0 -- -- 18